GRZ541 Details

Departure: Yellowknife Airport (CYZF)
Arrival: Ted Stevens Anchorage International Airport (PANC) at N/A
Route: YZF268095 63N20 YWY NCA17 ORT J124 GKN PTERS3
Notes:


Current Weather Information
CYZF 230755Z 30004KT 1/2SM R34/4000VP6000FT/D FZFG BKN005 M00/M00 A3011 RMK ST5 SLP213
PANC 230753Z 28009KT 10SM SCT065 OVC110 04/01 A2968 RMK AO2 SLP052 T00390006